• Join FlightAware (Why Join?)
  • Login
  • US Flag 
04:19AM EDT


 

Airport Tracker/Info


-or-


 

Live Flight TrackerFlight Track Log ✈ SWA2353 ✈ 08-May-2013 ✈ KPHL - KMDW

Flight Track Log - Related Links

Times and Time Zones

All times are in EDT time to prevent confusion due to time zone crossing. See the SWA2353 flight status page for this flight to view local times or setup timezone preferences in your user account.

Time Position Orientation Groundspeed Altitude Reporting Facility
EDT Latitude Longitude Course Direction KTS MPH feet Rate Location/Type
07:02PM 39.8667 -75.2833 247° West 147 169 900  Level Philadelphia TRACON
07:03PM 39.8500 -75.3333 247° West 208 239 2,200 2,280 Climbing Philadelphia TRACON
07:04PM 39.8500 -75.4000 270° West 215 247 5,100 2,700 Climbing Philadelphia TRACON
07:05PM 39.8939 -75.4381 326° Northwest 283 326 7,000 2,700 Climbing New York Center
07:06PM 39.9636 -75.4672 342° North 304 350 9,700 2,460 Climbing New York Center
07:07PM 40.0622 -75.5036 344° North 351 404 11,900 1,620 Climbing New York Center
07:08PM 40.1486 -75.5367 344° North 375 432 13,000 540 Climbing New York Center
07:09PM 40.2425 -75.5867 338° Northwest 375 432 13,000 1,320 Level New York Center
07:10PM 40.2969 -75.6803 307° West 356 410 15,700 2,760 Climbing New York Center
07:11PM 40.3269 -75.8078 287° West 343 395 18,700 2,880 Climbing New York Center
07:12PM 40.3497 -75.9592 281° West 365 420 21,600 2,760 Climbing New York Center
07:13PM 40.3706 -76.0997 281° West 382 440 24,200 2,460 Climbing New York Center
07:14PM 40.3931 -76.2403 282° West 394 453 26,600 2,280 Climbing New York Center
07:15PM 40.4156 -76.3839 282° West 399 459 28,800 1,500 Climbing New York Center
07:16PM 40.4394 -76.5358 282° West 411 473 29,600 1,260 Climbing New York Center
07:17PM 40.4650 -76.6964 282° West 425 489 31,400 1,620 Climbing New York Center
07:18PM 40.4903 -76.8542 282° West 439 505 32,900 1,500 Climbing New York Center
07:19PM 40.5153 -77.0175 281° West 450 518 34,400 1,380 Climbing New York Center
07:20PM 40.5400 -77.1781 282° West 450 518 35,700 1,080 Climbing New York Center
07:21PM 40.5633 -77.3225 282° West 450 518 36,600 840 Climbing New York Center
07:23PM 40.6033 -77.5967 281° West 472 543 38,000 480 Climbing Cleveland Center
07:24PM 40.6289 -77.7761 281° West 467 537 38,000  Level Cleveland Center
07:25PM 40.6514 -77.9339 281° West 462 532 38,000  Level Cleveland Center
07:26PM 40.6758 -78.0944 281° West 457 526 38,000  Level Cleveland Center
07:27PM 40.6981 -78.2553 280° West 452 520 38,000  Level Cleveland Center
07:28PM 40.7200 -78.4133 280° West 447 514 38,000  Level Cleveland Center
07:29PM 40.7414 -78.5553 281° West 447 514 38,000  Level Cleveland Center
07:30PM 40.7628 -78.7189 280° West 447 514 38,000  Level Cleveland Center
07:31PM 40.7842 -78.8803 280° West 447 514 38,000  Level Cleveland Center
07:32PM 40.8117 -79.0522 282° West 447 514 38,000  Level Cleveland Center
07:33PM 40.8325 -79.2136 280° West 447 514 38,000  Level Cleveland Center
07:34PM 40.8531 -79.3753 280° West 447 514 38,000  Level Cleveland Center
07:35PM 40.8753 -79.5314 281° West 447 514 38,000  Level Cleveland Center
07:36PM 40.8933 -79.6878 279° West 447 514 38,000  Level Cleveland Center
07:37PM 40.9133 -79.8494 279° West 447 514 38,000  Level Cleveland Center
07:38PM 40.9350 -80.0058 280° West 447 514 38,000  Level Cleveland Center
07:39PM 40.9544 -80.1625 279° West 447 514 38,000  Level Cleveland Center
07:40PM 40.9736 -80.3219 279° West 447 514 38,000  Level Cleveland Center
07:41PM 40.9947 -80.4814 280° West 447 514 38,000  Level Cleveland Center
07:42PM 41.0114 -80.6381 278° West 447 514 38,000  Level Cleveland Center
07:43PM 41.0300 -80.8006 279° West 447 514 38,000  Level Cleveland Center
07:44PM 41.0506 -80.9603 280° West 447 514 38,000  Level Cleveland Center
07:45PM 41.0664 -81.1228 277° West 447 514 38,000  Level Cleveland Center
07:46PM 41.0844 -81.2856 278° West 447 514 38,000  Level Cleveland Center
07:47PM 41.1019 -81.4456 278° West 447 514 38,000  Level Cleveland Center
07:48PM 41.1194 -81.6083 278° West 447 514 38,000  Level Cleveland Center
07:49PM 41.1428 -81.7686 281° West 447 514 38,000  Level Cleveland Center
07:50PM 41.1600 -81.9289 278° West 447 514 38,000 -60 Level Cleveland Center
07:51PM 41.1744 -82.0919 277° West 447 514 37,900 -1,020 Descending Cleveland Center
07:52PM 41.1908 -82.2608 277° West 460 529 36,000 -960 Descending Cleveland Center
07:53PM 41.2072 -82.4214 278° West 460 529 36,000  Level Cleveland Center
07:54PM 41.2253 -82.5819 279° West 447 514 36,000  Level Cleveland Center
07:55PM 41.2411 -82.7453 277° West 442 509 36,000  Level Cleveland Center
07:56PM 41.2569 -82.9033 278° West 447 514 36,000  Level Cleveland Center
07:57PM 41.2742 -83.0697 278° West 453 521 36,000  Level Cleveland Center
07:58PM 41.2856 -83.2111 276° West 447 514 36,000  Level Cleveland Center
07:59PM 41.3025 -83.3750 278° West 447 514 36,000  Level Cleveland Center
08:00PM 41.3153 -83.5358 276° West 447 514 36,000  Level Cleveland Center
08:01PM 41.3317 -83.6969 278° West 447 514 36,000  Level Cleveland Center
08:02PM 41.3461 -83.8553 277° West 442 509 36,000  Level Cleveland Center
08:03PM 41.3603 -84.0083 277° West 442 509 36,000  Level Cleveland Center
08:05PM 41.3917 -84.3317 277° West 420 483 36,000 -1,020 Level Chicago Center
08:06PM 41.4072 -84.5156 276° West 417 480 32,900 -2,640 Descending Chicago Center
08:07PM 41.4192 -84.6681 276° West 415 478 30,600 -1,440 Descending Chicago Center
08:08PM 41.4311 -84.8131 276° West 399 459 30,000 -1,080 Descending Chicago Center
08:09PM 41.4433 -84.9536 277° West 386 444 28,400 -1,260 Descending Chicago Center
08:10PM 41.4542 -85.0903 276° West 374 430 27,500 -1,020 Descending Chicago Center
08:11PM 41.4647 -85.2269 276° West 368 423 26,300 -1,440 Descending Chicago Center
08:12PM 41.4742 -85.3586 276° West 357 411 24,600 -1,680 Descending Chicago Center
08:13PM 41.4844 -85.4878 276° West 346 398 22,900 -1,440 Descending Chicago Center
08:14PM 41.4967 -85.6456 276° West 355 409 21,700 -1,260 Descending Chicago Center
08:15PM 41.5069 -85.7864 276° West 375 432 20,300 -1,680 Descending Chicago Center
08:16PM 41.5167 -85.9206 276° West 366 421 18,300 -1,920 Descending Chicago Center
08:17PM 41.5247 -86.0506 275° West 355 409 16,400 -1,980 Descending Chicago Center
08:18PM 41.5242 -86.1789 270° West 347 399 14,300 -1,980 Descending Chicago Center
08:19PM 41.5228 -86.3028 269° West 339 390 12,400 -1,800 Descending Chicago Center
08:20PM 41.5222 -86.4231 270° West 329 379 10,700 -1,200 Descending Chicago Center
08:21PM 41.5214 -86.5358 269° West 302 348 10,000 -300 Descending Chicago Center
08:22PM 41.5206 -86.6578 270° West 284 327 10,100  Climbing Chicago Center
08:23PM 41.5200 -86.7575 270° West 271 312 10,100 -60 Level Chicago Center
08:24PM 41.5186 -86.8583 269° West 273 314 10,000 -660 Descending Chicago Center
08:25PM 41.5181 -86.9608 270° West 276 318 8,800 -1,320 Descending Chicago Center
08:27PM 41.5169 -87.0597 269° West 272 313 7,300 -1,440 Descending Chicago Center
08:28PM 41.5164 -87.1758 270° West 265 305 5,900 -960 Descending Chicago Center
08:28PM 41.5167 -87.2167 271° West 256 295 6,000 -120 Climbing Chicago TRACON
08:29PM 41.5333 -87.3000 285° West 262 302 5,800 -660 Descending Chicago TRACON
08:30PM 41.5333 -87.4000 270° West 262 302 4,700 -960 Descending Chicago TRACON
08:31PM 41.5397 -87.4611 278° West 261 300 4,100 -420 Descending Chicago Center
08:32PM 41.5464 -87.5558 275° West 259 298 4,000 -180 Descending Chicago Center
08:33PM 41.5556 -87.6506 277° West 259 298 3,800 -720 Descending Chicago Center
08:34PM 41.5939 -87.7517 297° West 260 299 2,600 -600 Descending Chicago Center
08:35PM 41.6500 -87.8333 313° West 199 229 2,400 -180 Descending Chicago TRACON
08:36PM 41.6833 -87.8333 360° North 177 204 2,300 -300 Descending Chicago TRACON
08:37PM 41.7333 -87.8167 14° North 145 167 1,900 -540 Descending Chicago TRACON
08:38PM 41.7500 -87.7833 56° Northeast 131 151 1,300 -600 Descending Chicago TRACON
08:41PM 41.7833 -87.7500 28° Northeast  Level FlightAware Approximate